Center Strafford, New Hampshire
Current Conditions -  °F | °C
As of 8:51 PM on Thursday 20 Nov 2014 (Local Time) from KDAW Reporting Station
Broken Clouds Broken Clouds  
Wind Chill: 27°   Ceiling: 9000
Heat Index: 32°   Visibility: 10mi
Dew Point: 10°   Wind: 5mph
Humidity: 40%   Direction: NA
Pressure: 29.84"   Gusts: NA
Location:  43.27°N, 71.13°W
Report Text: KDAW 210151Z AUTO VRB04KT 10SM BKN090 00/M12 A2984 RMK AO2 SLP106 T00001122
Loading
Personal Weather Stations






























Interactive Weather Map New forecast layout! Learn more

10-Day Weather Forecast

Advertisements
Track Severe Weather on mobile